Time;durP1;ratioP1;P1;durP2;ratioP2;P2;SDS_P1;SDS_P2;PMS_P1;PMS_P2;Temp;Humidity;BMP_temperature;BMP_pressure;BME280_temperature;BME280_humidity;BME280_pressure;Samples;Min_cycle;Max_cycle;Signal;HPM_P1;HPM_P2
2023/05/12 00:02:24;;;;;;;1.00;1.00;;;10.20;99.90;;;;;;4962135;28;20472;-80
2023/05/12 00:04:50;;;;;;;1.10;1.00;;;10.30;99.90;;;;;;4973927;28;20475;-81
2023/05/12 00:07:16;;;;;;;0.90;0.90;;;10.30;99.90;;;;;;4998601;28;20026;-81
2023/05/12 00:09:41;;;;;;;0.73;0.73;;;10.30;99.90;;;;;;4998163;28;20015;-80
2023/05/12 00:12:08;;;;;;;0.70;0.70;;;10.30;99.90;;;;;;4978641;28;20388;-82
2023/05/12 00:14:37;;;;;;;0.70;0.70;;;10.30;99.90;;;;;;4979043;28;20049;-81
2023/05/12 00:17:05;;;;;;;0.52;0.52;;;10.20;99.90;;;;;;4962492;29;20054;-80
2023/05/12 00:19:32;;;;;;;1.17;1.13;;;10.20;99.90;;;;;;4951414;28;20401;-80
2023/05/12 00:21:58;;;;;;;0.60;0.60;;;10.20;99.90;;;;;;4966127;28;20027;-80
2023/05/12 00:24:24;;;;;;;1.00;0.90;;;10.20;99.90;;;;;;4966458;28;20019;-81
2023/05/12 00:26:52;;;;;;;0.82;0.82;;;10.20;99.90;;;;;;4978534;28;20029;-80
2023/05/12 00:29:18;;;;;;;1.52;1.40;;;10.20;99.90;;;;;;4978811;28;20015;-82
2023/05/12 00:31:44;;;;;;;1.17;1.17;;;10.10;99.90;;;;;;4978652;28;20027;-81
2023/05/12 00:34:10;;;;;;;1.25;1.08;;;10.10;99.90;;;;;;4961330;28;20027;-80
2023/05/12 00:36:36;;;;;;;0.93;0.93;;;10.10;99.90;;;;;;4978096;28;20128;-81
2023/05/12 00:39:02;;;;;;;0.98;0.98;;;10.10;99.90;;;;;;4978515;28;20102;-81
2023/05/12 00:41:28;;;;;;;0.95;0.95;;;10.00;99.90;;;;;;4960877;28;20177;-80
2023/05/12 00:43:53;;;;;;;1.45;1.00;;;10.00;99.90;;;;;;4984290;28;20051;-85
2023/05/12 00:46:20;;;;;;;0.82;0.82;;;10.00;99.90;;;;;;4984198;28;20114;-82
2023/05/12 00:48:46;;;;;;;0.70;0.70;;;10.00;99.90;;;;;;4960237;28;20031;-81
2023/05/12 00:51:14;;;;;;;0.65;0.65;;;10.00;99.90;;;;;;4977765;28;20082;-80
2023/05/12 00:53:41;;;;;;;0.80;0.70;;;10.00;99.90;;;;;;4978138;28;20038;-81
2023/05/12 00:56:07;;;;;;;0.75;0.75;;;10.10;99.90;;;;;;4960502;28;20100;-80
2023/05/12 00:58:33;;;;;;;0.70;0.70;;;10.10;99.90;;;;;;4960853;28;20027;-81
2023/05/12 01:00:58;;;;;;;0.98;0.77;;;10.00;99.90;;;;;;4961102;28;20026;-80
2023/05/12 01:03:24;;;;;;;0.65;0.65;;;10.00;99.90;;;;;;4977858;28;20015;-80
2023/05/12 01:05:53;;;;;;;0.75;0.75;;;9.90;99.90;;;;;;4982940;28;20101;-80
2023/05/12 01:08:20;;;;;;;0.70;0.70;;;9.90;99.90;;;;;;5001253;28;20026;-80
2023/05/12 01:10:46;;;;;;;0.50;0.50;;;9.90;99.90;;;;;;5001275;28;20085;-80
2023/05/12 01:13:12;;;;;;;0.50;0.50;;;10.00;99.90;;;;;;4991571;28;20129;-79
2023/05/12 01:15:43;;;;;;;0.55;0.55;;;10.00;99.90;;;;;;5008577;28;20030;-81
2023/05/12 01:18:11;;;;;;;1.05;0.95;;;9.90;99.90;;;;;;4988879;28;20022;-79
2023/05/12 01:20:37;;;;;;;0.80;0.80;;;9.90;99.90;;;;;;5006352;28;20027;-80
2023/05/12 01:23:04;;;;;;;0.80;0.80;;;9.90;99.90;;;;;;5005981;28;20070;-80
2023/05/12 01:25:33;;;;;;;1.08;1.08;;;9.90;99.90;;;;;;5007514;28;20037;-79
2023/05/12 01:28:00;;;;;;;1.40;1.30;;;9.90;99.90;;;;;;5007618;28;20022;-80
2023/05/12 01:30:27;;;;;;;1.02;0.98;;;9.90;99.90;;;;;;4986522;28;20094;-80
2023/05/12 01:32:53;;;;;;;1.00;0.95;;;9.90;99.90;;;;;;4982708;28;20026;-82
2023/05/12 01:35:19;;;;;;;1.10;1.10;;;9.90;99.90;;;;;;5002362;28;20038;-80
2023/05/12 01:37:45;;;;;;;1.10;1.10;;;9.90;99.90;;;;;;4988618;28;20026;-80
2023/05/12 01:40:11;;;;;;;1.02;0.93;;;9.80;99.90;;;;;;5003654;28;20032;-81
2023/05/12 01:42:39;;;;;;;0.80;0.80;;;9.90;99.90;;;;;;5000428;28;20030;-79
2023/05/12 01:45:06;;;;;;;0.73;0.73;;;9.90;99.90;;;;;;5011747;28;20003;-80
2023/05/12 01:47:34;;;;;;;0.65;0.65;;;9.90;99.90;;;;;;5017690;28;20074;-80
2023/05/12 01:50:00;;;;;;;0.88;0.88;;;9.90;99.90;;;;;;5018167;28;20042;-79
2023/05/12 01:52:27;;;;;;;0.80;0.80;;;10.00;99.90;;;;;;5018109;28;20053;-80
2023/05/12 01:54:52;;;;;;;0.90;0.90;;;10.00;99.90;;;;;;5017966;28;20058;-83
2023/05/12 01:57:18;;;;;;;0.80;0.80;;;10.00;99.90;;;;;;5001328;28;20011;-81
2023/05/12 01:59:44;;;;;;;0.77;0.77;;;10.10;99.90;;;;;;5017239;28;20041;-80
2023/05/12 02:02:11;;;;;;;0.95;0.82;;;10.10;99.90;;;;;;5002060;28;20006;-81
2023/05/12 02:04:36;;;;;;;0.68;0.68;;;10.00;99.90;;;;;;4998997;28;20042;-79
2023/05/12 02:07:02;;;;;;;0.60;0.60;;;10.00;99.90;;;;;;5009456;28;20026;-79
2023/05/12 03:10:55;;;;;;;0.70;0.70;;;10.10;99.90;;;;;;4958727;28;20106;-82
2023/05/12 03:13:23;;;;;;;1.10;1.10;;;10.10;99.90;;;;;;4970581;28;20417;-81
2023/05/12 03:15:49;;;;;;;1.02;0.90;;;10.10;99.90;;;;;;4973102;28;20091;-77
2023/05/12 03:18:17;;;;;;;0.70;0.70;;;10.10;99.90;;;;;;4974660;28;20451;-76
2023/05/12 03:20:43;;;;;;;0.60;0.60;;;10.10;99.90;;;;;;4977520;28;20030;-76
2023/05/12 03:23:09;;;;;;;1.20;1.10;;;10.10;99.90;;;;;;4991422;28;20049;-75
2023/05/12 03:25:35;;;;;;;1.40;1.30;;;10.10;99.90;;;;;;4995333;28;20054;-76
2023/05/12 03:28:04;;;;;;;0.80;0.80;;;10.10;99.90;;;;;;4999643;28;20037;-75
2023/05/12 03:30:31;;;;;;;0.80;0.80;;;10.20;99.90;;;;;;4986961;28;20023;-75
2023/05/12 03:32:57;;;;;;;1.05;1.05;;;10.20;99.90;;;;;;4990459;28;20019;-76
2023/05/12 03:35:23;;;;;;;1.50;1.40;;;10.20;99.90;;;;;;4992729;28;20045;-75
2023/05/12 03:37:49;;;;;;;1.17;1.17;;;10.10;99.90;;;;;;4994859;28;20030;-76
2023/05/12 03:40:17;;;;;;;1.73;1.60;;;10.10;99.90;;;;;;4987345;28;20380;-76
2023/05/12 03:42:44;;;;;;;1.67;1.52;;;10.10;99.90;;;;;;4972014;28;20118;-75
2023/05/12 03:45:10;;;;;;;1.63;1.52;;;10.10;99.90;;;;;;4968903;28;20027;-75
2023/05/12 03:47:36;;;;;;;1.92;1.83;;;10.10;99.90;;;;;;4965763;28;20203;-76
2023/05/12 03:50:01;;;;;;;2.78;2.05;;;10.00;99.90;;;;;;4980184;28;20043;-76
2023/05/12 03:52:27;;;;;;;1.65;1.55;;;10.00;99.90;;;;;;4982636;28;20466;-76
2023/05/12 03:54:53;;;;;;;1.98;1.80;;;10.00;99.90;;;;;;4966539;28;20046;-77
2023/05/12 03:57:18;;;;;;;1.58;1.48;;;10.00;99.90;;;;;;4987075;28;20129;-77
2023/05/12 03:59:44;;;;;;;1.48;1.38;;;10.00;99.90;;;;;;4986822;28;20121;-77
2023/05/12 04:02:11;;;;;;;1.33;1.23;;;10.00;99.90;;;;;;4968692;28;20336;-76
2023/05/12 04:04:37;;;;;;;1.25;1.15;;;10.00;99.90;;;;;;4983207;28;20031;-75
2023/05/12 04:07:03;;;;;;;1.35;1.25;;;10.00;99.90;;;;;;4989411;28;20044;-76
2023/05/12 04:09:32;;;;;;;1.67;1.58;;;10.00;99.90;;;;;;4994601;28;20037;-77
2023/05/12 04:11:58;;;;;;;1.88;1.50;;;10.00;99.90;;;;;;4996124;28;20136;-78
2023/05/12 04:14:23;;;;;;;1.50;1.40;;;10.00;99.90;;;;;;4973516;28;20387;-78
2023/05/12 04:16:49;;;;;;;1.60;1.50;;;10.00;99.90;;;;;;4961450;29;20055;-78
2023/05/12 04:19:15;;;;;;;1.60;1.45;;;10.10;99.90;;;;;;4962330;28;20030;-76
2023/05/12 04:21:40;;;;;;;1.83;1.73;;;10.00;99.90;;;;;;4979994;28;20035;-76
2023/05/12 04:24:06;;;;;;;2.47;2.25;;;10.10;99.90;;;;;;4959842;29;20028;-78
2023/05/12 04:26:32;;;;;;;2.53;2.30;;;10.10;99.90;;;;;;4977558;28;20038;-78
2023/05/12 04:28:57;;;;;;;2.78;2.50;;;10.20;99.90;;;;;;4992187;28;20030;-77
2023/05/12 04:31:33;;;;;;;2.60;2.40;;;10.20;99.90;;;;;;4975306;28;20041;-83
2023/05/12 04:34:00;;;;;;;2.83;2.58;;;10.20;99.90;;;;;;4951534;28;20049;-83
2023/05/12 04:36:25;;;;;;;2.53;2.17;;;10.30;99.90;;;;;;4963392;28;20026;-83
2023/05/12 04:38:58;;;;;;;1.70;1.40;;;10.40;99.90;;;;;;4979635;28;20022;-82
2023/05/12 04:41:48;;;;;;;1.58;1.33;;;10.50;99.90;;;;;;4970648;28;20034;-83
2023/05/12 04:44:34;;;;;;;2.08;1.88;;;10.60;99.90;;;;;;4973807;28;20045;-82
2023/05/12 04:47:01;;;;;;;1.48;1.38;;;10.80;99.90;;;;;;4970599;28;20468;-83
2023/05/12 04:49:27;;;;;;;1.27;1.17;;;10.90;99.90;;;;;;4977757;28;20057;-83
2023/05/12 04:52:16;;;;;;;1.10;1.05;;;10.90;99.90;;;;;;4983010;28;20030;-83
2023/05/12 04:54:43;;;;;;;1.30;1.20;;;11.00;99.90;;;;;;4982552;28;20088;-83
2023/05/12 04:57:18;;;;;;;1.38;1.27;;;11.10;99.90;;;;;;4986498;28;20475;-85
2023/05/12 05:00:29;;;;;;;0.90;0.90;;;11.10;99.90;;;;;;4960024;28;20113;-82
2023/05/12 05:03:20;;;;;;;0.80;0.80;;;11.10;99.90;;;;;;4968515;28;20097;-86
2023/05/12 05:06:27;;;;;;;1.02;1.02;;;11.10;99.90;;;;;;4966578;28;20049;-84
2023/05/12 05:08:54;;;;;;;0.75;0.75;;;11.10;99.90;;;;;;4970539;28;20105;-82
2023/05/12 05:12:01;;;;;;;0.82;0.82;;;11.10;99.90;;;;;;4984594;28;20090;-84
2023/05/12 05:14:27;;;;;;;0.90;0.90;;;11.20;99.90;;;;;;4972493;28;20046;-85
2023/05/12 05:16:53;;;;;;;0.73;0.73;;;11.30;99.90;;;;;;4970360;28;20049;-83
2023/05/12 05:20:02;;;;;;;0.50;0.50;;;11.30;99.90;;;;;;4976396;28;20418;-84
2023/05/12 05:22:49;;;;;;;0.55;0.55;;;11.40;99.90;;;;;;4984026;28;20046;-84
2023/05/12 05:25:15;;;;;;;0.65;0.60;;;11.50;99.90;;;;;;4981402;28;20105;-85
2023/05/12 05:27:41;;;;;;;0.55;0.55;;;11.50;99.90;;;;;;5000206;28;20022;-83
2023/05/12 05:30:08;;;;;;;0.60;0.60;;;11.60;99.90;;;;;;4968627;28;20422;-82
2023/05/12 05:33:02;;;;;;;0.50;0.50;;;11.70;99.90;;;;;;5008951;28;20054;-78
2023/05/12 05:35:32;;;;;;;0.40;0.40;;;11.70;99.90;;;;;;4982564;28;20065;-81
2023/05/12 05:37:57;;;;;;;0.40;0.40;;;11.80;99.90;;;;;;4977745;28;20043;-80
2023/05/12 05:40:23;;;;;;;0.45;0.45;;;11.80;99.90;;;;;;4974758;28;20106;-83
2023/05/12 05:42:49;;;;;;;0.32;0.32;;;11.90;99.90;;;;;;4990212;28;20027;-83
2023/05/12 05:45:15;;;;;;;0.30;0.30;;;11.90;99.90;;;;;;4980717;28;20391;-81
2023/05/12 05:47:41;;;;;;;0.65;0.65;;;12.10;99.90;;;;;;4998903;28;20033;-81
2023/05/12 05:50:07;;;;;;;0.40;0.40;;;12.30;99.90;;;;;;4964910;28;20102;-83
2023/05/12 05:52:33;;;;;;;1.30;0.60;;;12.40;99.90;;;;;;4987525;28;20117;-81
2023/05/12 05:55:15;;;;;;;0.35;0.35;;;12.50;99.90;;;;;;4993453;28;20031;-81
2023/05/12 05:57:42;;;;;;;0.50;0.50;;;12.50;99.90;;;;;;4959408;28;20063;-82
2023/05/12 06:00:08;;;;;;;0.50;0.50;;;12.60;99.90;;;;;;4983541;28;20037;-82
2023/05/12 06:02:35;;;;;;;0.52;0.52;;;12.70;99.90;;;;;;4987268;28;20117;-82
2023/05/12 06:05:03;;;;;;;0.38;0.38;;;12.90;99.90;;;;;;4985216;28;20077;-82
2023/05/12 06:07:28;;;;;;;0.25;0.25;;;13.20;99.90;;;;;;4969025;28;20031;-84
2023/05/12 06:09:54;;;;;;;0.20;0.20;;;13.50;99.90;;;;;;5005508;28;20085;-81
2023/05/12 06:12:21;;;;;;;0.10;0.10;;;13.70;99.90;;;;;;5007502;28;20126;-81
2023/05/12 06:14:46;;;;;;;0.28;0.28;;;14.00;99.90;;;;;;4990213;28;20034;-84
2023/05/12 06:17:12;;;;;;;0.25;0.25;;;14.10;99.10;;;;;;4966406;28;20045;-83
2023/05/12 06:19:38;;;;;;;0.60;0.20;;;14.20;98.70;;;;;;4966851;28;20045;-80
2023/05/12 06:22:04;;;;;;;0.28;0.28;;;14.00;98.60;;;;;;4996957;28;20463;-82
2023/05/12 06:24:31;;;;;;;0.30;0.30;;;14.00;98.60;;;;;;4994573;28;20030;-82
2023/05/12 06:26:58;;;;;;;0.15;0.15;;;13.80;98.40;;;;;;5003022;28;20038;-81
2023/05/12 06:29:23;;;;;;;0.30;0.30;;;13.70;98.80;;;;;;4978518;28;20359;-82
2023/05/12 06:32:24;;;;;;;0.30;0.30;;;13.60;98.40;;;;;;4966360;28;20027;-82
2023/05/12 06:34:49;;;;;;;0.57;0.57;;;13.50;98.60;;;;;;4986588;28;20069;-82
2023/05/12 06:37:14;;;;;;;0.45;0.45;;;13.40;98.10;;;;;;4979063;28;20057;-83
2023/05/12 06:39:41;;;;;;;0.50;0.50;;;13.20;98.00;;;;;;4985580;28;20094;-82
2023/05/12 06:42:06;;;;;;;0.63;0.60;;;13.10;98.00;;;;;;4986378;28;20386;-82
2023/05/12 06:44:36;;;;;;;0.30;0.30;;;13.00;98.20;;;;;;4989718;28;20031;-82
2023/05/12 06:47:39;;;;;;;0.65;0.65;;;13.10;98.70;;;;;;5001443;28;20002;-78
2023/05/12 06:50:15;;;;;;;0.80;0.80;;;13.30;98.20;;;;;;4992657;28;20115;-80
2023/05/12 06:52:42;;;;;;;0.32;0.32;;;13.40;97.50;;;;;;4987790;28;20079;-81
2023/05/12 07:01:45;;;;;;;0.40;0.40;;;14.10;96.80;;;;;;4994367;28;20098;-80
2023/05/12 07:08:33;;;;;;;0.30;0.30;;;14.50;94.60;;;;;;4992913;28;20034;-83
2023/05/12 07:21:39;;;;;;;0.30;0.30;;;14.70;92.80;;;;;;4870517;29;20048;-79
2023/05/12 07:25:14;;;;;;;0.40;0.40;;;14.80;93.30;;;;;;4912394;29;20044;-83
2023/05/12 07:31:30;;;;;;;0.20;0.20;;;14.80;92.40;;;;;;4863462;29;20048;-80
2023/05/12 07:41:08;;;;;;;0.75;0.68;;;14.90;91.60;;;;;;4941001;29;20050;-84
2023/05/12 07:53:54;;;;;;;0.40;0.40;;;14.50;91.50;;;;;;4866676;29;20044;-83
2023/05/12 07:56:21;;;;;;;0.63;0.63;;;14.40;91.80;;;;;;4899496;29;20062;-83
2023/05/12 07:58:46;;;;;;;0.68;0.68;;;14.20;92.30;;;;;;4934443;28;20082;-84
2023/05/12 08:01:12;;;;;;;0.80;0.80;;;14.20;92.30;;;;;;4945894;29;20027;-85
2023/05/12 08:03:40;;;;;;;0.73;0.73;;;14.20;92.30;;;;;;4963588;29;20050;-83
2023/05/12 08:06:06;;;;;;;0.40;0.40;;;14.10;92.90;;;;;;4945704;29;20142;-83
2023/05/12 08:08:33;;;;;;;0.60;0.60;;;14.10;93.10;;;;;;4963887;29;20104;-84
2023/05/12 08:10:58;;;;;;;0.47;0.40;;;14.10;93.10;;;;;;4969999;28;20042;-82
2023/05/12 08:13:25;;;;;;;0.98;0.60;;;14.10;93.30;;;;;;4995497;28;20039;-82
2023/05/12 08:15:51;;;;;;;0.65;0.65;;;14.10;93.60;;;;;;4979251;28;20022;-80
2023/05/12 08:18:19;;;;;;;0.60;0.60;;;14.10;93.50;;;;;;4991613;28;20034;-82
2023/05/12 08:20:46;;;;;;;0.50;0.50;;;14.00;93.60;;;;;;4980943;28;20022;-84
2023/05/12 08:23:12;;;;;;;0.60;0.60;;;14.00;93.80;;;;;;4969940;29;20027;-83
2023/05/12 08:25:40;;;;;;;0.50;0.50;;;14.00;94.20;;;;;;4969875;29;20023;-83
2023/05/12 08:28:05;;;;;;;0.82;0.60;;;14.10;94.10;;;;;;4964693;29;20024;-85
2023/05/12 08:30:31;;;;;;;1.77;0.90;;;14.20;93.70;;;;;;4968509;28;20062;-85
2023/05/12 08:32:57;;;;;;;0.70;0.70;;;14.20;93.00;;;;;;4958360;29;20118;-84
2023/05/12 08:35:25;;;;;;;0.98;0.98;;;14.10;93.00;;;;;;4960744;28;20390;-82
2023/05/12 08:37:51;;;;;;;0.80;0.80;;;13.90;93.10;;;;;;4976358;28;20122;-82
2023/05/12 08:40:21;;;;;;;0.40;0.40;;;13.90;93.40;;;;;;4970768;28;20049;-84
2023/05/12 08:43:11;;;;;;;0.50;0.50;;;14.00;93.80;;;;;;4986508;28;20514;-83
2023/05/12 08:45:38;;;;;;;0.38;0.38;;;14.40;93.80;;;;;;4961618;28;20033;-81
2023/05/12 08:48:07;;;;;;;0.60;0.60;;;14.60;93.20;;;;;;4956650;28;20050;-84
2023/05/12 08:50:36;;;;;;;1.13;1.02;;;14.70;92.10;;;;;;4963542;28;20023;-81
2023/05/12 08:53:10;;;;;;;1.08;0.85;;;14.70;91.00;;;;;;4979628;28;20492;-82
2023/05/12 08:55:36;;;;;;;0.55;0.52;;;14.80;91.30;;;;;;4985180;28;20006;-79
2023/05/12 08:58:02;;;;;;;1.25;0.73;;;14.90;91.10;;;;;;5000598;28;20045;-79
2023/05/12 09:00:30;;;;;;;0.40;0.40;;;15.10;91.00;;;;;;4999559;28;20065;-82
2023/05/12 09:02:57;;;;;;;0.50;0.50;;;15.20;90.80;;;;;;4965542;28;20030;-80
2023/05/12 09:05:25;;;;;;;0.55;0.50;;;15.20;90.30;;;;;;4982625;28;20034;-81
2023/05/12 09:07:54;;;;;;;0.43;0.43;;;15.10;90.10;;;;;;4981912;28;20015;-82
2023/05/12 09:10:21;;;;;;;0.55;0.55;;;15.10;90.10;;;;;;4963252;28;20015;-81
2023/05/12 09:12:50;;;;;;;0.50;0.50;;;15.20;90.30;;;;;;4970420;28;20038;-83
2023/05/12 09:15:22;;;;;;;0.52;0.52;;;15.40;90.20;;;;;;4975608;28;20457;-79
2023/05/12 09:17:47;;;;;;;0.57;0.40;;;15.30;89.00;;;;;;4980047;28;20047;-81
2023/05/12 09:20:14;;;;;;;0.20;0.20;;;15.20;89.00;;;;;;4956289;29;20472;-82
2023/05/12 09:22:39;;;;;;;0.47;0.47;;;15.30;89.70;;;;;;4980771;28;20038;-80
2023/05/12 09:25:19;;;;;;;0.32;0.32;;;15.40;88.50;;;;;;4961887;28;20026;-82
2023/05/12 09:27:48;;;;;;;0.43;0.20;;;15.60;88.50;;;;;;4967026;28;20305;-82
2023/05/12 09:30:15;;;;;;;0.30;0.30;;;;;;;;;;4966049;28;20027;-82
2023/05/12 09:32:41;;;;;;;0.30;0.22;;;16.10;86.80;;;;;;4941483;29;20034;-83
2023/05/12 09:35:11;;;;;;;0.20;0.20;;;16.30;85.00;;;;;;4960908;29;20031;-82
2023/05/12 09:37:38;;;;;;;0.10;0.10;;;16.50;84.30;;;;;;4969259;28;20016;-78
2023/05/12 09:40:06;;;;;;;0.30;0.30;;;16.70;83.40;;;;;;4972049;28;20054;-81
2023/05/12 09:42:34;;;;;;;0.30;0.30;;;16.70;81.40;;;;;;4961317;28;20038;-81
2023/05/12 09:45:02;;;;;;;0.63;0.63;;;16.50;80.30;;;;;;4943335;28;20023;-83
2023/05/12 09:47:34;;;;;;;0.40;0.40;;;16.10;80.50;;;;;;4961517;29;20027;-81
2023/05/12 09:50:04;;;;;;;0.20;0.20;;;15.80;81.60;;;;;;4971054;28;20023;-82
2023/05/12 09:52:35;;;;;;;0.20;0.20;;;15.50;83.00;;;;;;4975413;28;20101;-82
2023/05/12 09:55:10;;;;;;;0.30;0.30;;;15.20;84.30;;;;;;4941618;29;20039;-81
2023/05/12 09:57:39;;;;;;;0.40;0.40;;;15.00;85.10;;;;;;4959319;29;20027;-82
2023/05/12 10:00:16;;;;;;;0.30;0.30;;;14.80;86.10;;;;;;4960806;29;20027;-81
2023/05/12 10:02:42;;;;;;;0.30;0.30;;;14.60;87.00;;;;;;4961332;29;20067;-82
2023/05/12 10:05:15;;;;;;;0.30;0.30;;;14.70;87.70;;;;;;4956755;28;20378;-82
2023/05/12 10:07:44;;;;;;;0.20;0.20;;;14.70;87.90;;;;;;4959831;29;20070;-81
2023/05/12 10:10:13;;;;;;;0.20;0.20;;;14.70;87.50;;;;;;4941678;29;20198;-81
2023/05/12 10:12:40;;;;;;;0.25;0.25;;;14.80;87.80;;;;;;4960463;29;20023;-81
2023/05/12 10:15:09;;;;;;;0.32;0.32;;;14.90;87.20;;;;;;4954473;28;20031;-80
2023/05/12 10:17:36;;;;;;;0.20;0.20;;;15.10;86.60;;;;;;4978240;28;20074;-80
2023/05/12 10:20:05;;;;;;;0.20;0.20;;;15.20;86.30;;;;;;4962486;28;20023;-81
2023/05/12 10:22:33;;;;;;;0.20;0.20;;;15.50;85.70;;;;;;4963023;28;20069;-80
2023/05/12 10:25:01;;;;;;;0.28;0.20;;;15.80;84.90;;;;;;4951146;29;20015;-83
2023/05/12 10:27:28;;;;;;;0.20;0.20;;;16.00;83.50;;;;;;4943517;29;20123;-82
2023/05/12 10:29:54;;;;;;;1.35;0.73;;;16.10;82.00;;;;;;4944790;29;20027;-81
2023/05/12 10:32:20;;;;;;;0.20;0.20;;;16.00;81.40;;;;;;4960710;29;20035;-83
2023/05/12 10:34:46;;;;;;;0.20;0.20;;;16.20;81.00;;;;;;4966658;28;20081;-82
2023/05/12 10:37:12;;;;;;;0.30;0.30;;;16.50;80.70;;;;;;4964752;28;20448;-83
2023/05/12 10:39:51;;;;;;;0.38;0.20;;;16.80;77.90;;;;;;4986220;28;20027;-81
2023/05/12 10:42:25;;;;;;;0.20;0.20;;;16.80;76.50;;;;;;4970051;28;20034;-82
2023/05/12 10:44:55;;;;;;;0.30;0.30;;;16.70;76.00;;;;;;4960234;29;20023;-81
2023/05/12 10:47:28;;;;;;;0.30;0.30;;;16.50;75.40;;;;;;4955816;28;20020;-80
2023/05/12 10:49:59;;;;;;;0.20;0.20;;;;;;;;;;4986122;28;20035;-80
2023/05/12 10:52:25;;;;;;;0.20;0.20;;;15.90;76.30;;;;;;4974926;28;20087;-80
2023/05/12 10:55:02;;;;;;;0.30;0.30;;;15.90;78.20;;;;;;4970981;28;20039;-81
2023/05/12 10:57:29;;;;;;;0.15;0.13;;;16.10;78.10;;;;;;4973000;28;20027;-81
2023/05/12 10:59:59;;;;;;;0.20;0.20;;;16.20;77.70;;;;;;4949808;29;20118;-82
2023/05/12 11:02:31;;;;;;;0.20;0.20;;;16.40;77.40;;;;;;4964690;29;20038;-82
2023/05/12 11:05:03;;;;;;;;;;;16.60;76.60;;;;;;4948569;28;20038;-82
2023/05/12 11:07:32;;;;;;;0.20;0.20;;;16.80;75.80;;;;;;4982950;28;19910;-82
2023/05/12 11:10:03;;;;;;;0.30;0.30;;;16.80;75.40;;;;;;4989466;28;19998;-78
2023/05/12 11:12:36;;;;;;;0.20;0.20;;;16.70;75.10;;;;;;5057339;23;20097;-76
2023/05/12 11:15:04;;;;;;;0.38;0.20;;;16.60;75.80;;;;;;5009117;28;20078;-77
2023/05/12 11:17:30;;;;;;;0.20;0.20;;;16.50;76.10;;;;;;5017210;28;20478;-77
2023/05/12 11:19:56;;;;;;;0.63;0.28;;;16.40;75.70;;;;;;5009789;28;20109;-78
2023/05/12 11:22:22;;;;;;;0.20;0.20;;;16.20;76.00;;;;;;5008834;28;20026;-77
2023/05/12 11:24:51;;;;;;;0.20;0.20;;;16.10;76.90;;;;;;5001523;28;20034;-77
2023/05/12 11:27:20;;;;;;;1.00;0.40;;;16.20;78.00;;;;;;5006730;28;20033;-78
2023/05/12 11:29:58;;;;;;;0.10;0.10;;;16.20;77.50;;;;;;4997223;28;20014;-77
2023/05/12 11:32:24;;;;;;;1.10;0.32;;;16.10;76.90;;;;;;4997121;28;20058;-78
2023/05/12 11:34:49;;;;;;;0.57;0.45;;;15.80;77.30;;;;;;4998320;28;20015;-77
2023/05/12 11:37:19;;;;;;;0.63;0.63;;;15.70;78.90;;;;;;4995232;28;20369;-77
2023/05/12 11:39:45;;;;;;;0.40;0.40;;;15.60;80.30;;;;;;4995845;28;20030;-77
2023/05/12 11:42:11;;;;;;;0.63;0.63;;;15.60;81.50;;;;;;4997109;28;20031;-77
2023/05/12 11:44:45;;;;;;;0.50;0.50;;;15.50;82.20;;;;;;4986232;28;20019;-77
2023/05/12 11:47:13;;;;;;;0.90;0.75;;;15.50;83.30;;;;;;5003529;28;20030;-77
2023/05/12 11:50:08;;;;;;;2.33;1.65;;;15.30;84.10;;;;;;5001798;28;20033;-77
2023/05/12 11:52:34;;;;;;;0.90;0.90;;;15.10;85.60;;;;;;4980192;28;20030;-77
2023/05/12 11:54:59;;;;;;;0.85;0.85;;;15.00;86.90;;;;;;5017507;28;20036;-78
2023/05/12 11:57:27;;;;;;;1.65;1.40;;;14.90;88.00;;;;;;5005453;28;20023;-77
2023/05/12 12:00:11;;;;;;;1.48;1.27;;;14.80;88.70;;;;;;5001014;28;20018;-78
2023/05/12 12:02:38;;;;;;;1.15;0.70;;;14.80;89.00;;;;;;4990800;28;20045;-77
2023/05/12 12:05:14;;;;;;;0.77;0.77;;;14.70;89.50;;;;;;5009144;28;20045;-77
2023/05/12 12:07:40;;;;;;;1.00;1.00;;;14.90;90.00;;;;;;5004474;28;20045;-76
2023/05/12 12:10:17;;;;;;;1.40;1.30;;;15.00;89.50;;;;;;4999406;28;20034;-79
2023/05/12 12:12:44;;;;;;;2.10;1.90;;;15.00;88.30;;;;;;4999092;28;20026;-77
2023/05/12 12:15:11;;;;;;;2.70;1.98;;;14.80;87.40;;;;;;4998348;28;20030;-77
2023/05/12 12:17:37;;;;;;;2.30;2.10;;;14.70;87.40;;;;;;4997539;28;20068;-77
2023/05/12 12:20:04;;;;;;;2.65;1.77;;;14.50;87.70;;;;;;5006930;28;20029;-77
2023/05/12 12:22:32;;;;;;;2.30;1.60;;;14.30;88.60;;;;;;5003562;28;20054;-78
2023/05/12 12:24:59;;;;;;;1.77;1.67;;;14.30;89.40;;;;;;5005185;28;20458;-77
2023/05/12 12:27:24;;;;;;;2.00;1.80;;;14.30;89.80;;;;;;5000370;28;20026;-77
2023/05/12 12:29:50;;;;;;;1.38;1.27;;;14.30;90.00;;;;;;4993001;28;20110;-78
2023/05/12 12:32:16;;;;;;;1.42;1.33;;;14.40;90.30;;;;;;5000588;28;20014;-78
2023/05/12 12:34:43;;;;;;;3.55;1.40;;;14.40;89.50;;;;;;5005868;28;20134;-78
2023/05/12 12:37:12;;;;;;;0.98;0.95;;;14.30;89.60;;;;;;5003054;28;20380;-76
2023/05/12 12:39:38;;;;;;;0.90;0.90;;;14.30;89.60;;;;;;4988835;28;20129;-76
2023/05/12 12:42:04;;;;;;;1.77;1.27;;;14.20;89.60;;;;;;5009954;28;20026;-77
2023/05/12 12:44:30;;;;;;;1.48;1.00;;;14.10;89.20;;;;;;4995781;28;20102;-77
2023/05/12 12:46:55;;;;;;;1.20;1.10;;;14.10;90.10;;;;;;4998101;28;20391;-77
2023/05/12 12:49:21;;;;;;;1.75;1.65;;;14.10;90.30;;;;;;4998668;28;20026;-78
2023/05/12 12:51:47;;;;;;;1.30;1.20;;;14.20;90.40;;;;;;5008424;28;20108;-78
2023/05/12 12:54:14;;;;;;;1.95;1.38;;;14.40;90.30;;;;;;5014319;28;20032;-76
2023/05/12 12:56:39;;;;;;;1.33;1.23;;;14.50;90.50;;;;;;5015809;28;20030;-78
2023/05/12 12:59:05;;;;;;;1.00;1.00;;;14.70;90.60;;;;;;5000658;28;20080;-76
2023/05/12 13:01:32;;;;;;;1.23;1.08;;;14.90;90.50;;;;;;4996627;28;20053;-79
2023/05/12 13:03:59;;;;;;;1.65;1.55;;;15.20;90.00;;;;;;5003365;28;20113;-77
2023/05/12 13:06:25;;;;;;;1.40;1.30;;;15.30;87.90;;;;;;5008238;28;20025;-76
2023/05/12 13:08:51;;;;;;;1.27;1.17;;;15.30;87.80;;;;;;4996409;28;20034;-77
2023/05/12 13:11:17;;;;;;;2.60;2.40;;;15.30;88.20;;;;;;5004345;28;20032;-77
2023/05/12 13:13:43;;;;;;;3.00;2.75;;;15.40;87.90;;;;;;5005128;28;20040;-77
2023/05/12 13:16:09;;;;;;;3.10;2.80;;;15.40;88.20;;;;;;5009223;28;20026;-77
2023/05/12 13:18:36;;;;;;;2.97;2.65;;;;;;;;;;4996376;28;20100;-77
2023/05/12 13:21:03;;;;;;;2.33;2.13;;;15.20;89.10;;;;;;4991391;28;20026;-77
2023/05/12 13:23:28;;;;;;;1.92;1.83;;;15.30;90.10;;;;;;5005638;28;20025;-77
2023/05/12 13:25:54;;;;;;;2.72;2.53;;;15.40;90.30;;;;;;5007594;28;20022;-77
2023/05/12 13:28:20;;;;;;;4.13;3.72;;;15.50;90.10;;;;;;5015226;28;20076;-76
2023/05/12 13:30:45;;;;;;;6.25;4.32;;;15.40;88.90;;;;;;5009538;28;20038;-77
2023/05/12 13:33:11;;;;;;;5.35;4.85;;;15.30;89.30;;;;;;5007989;28;20038;-77
2023/05/12 13:35:37;;;;;;;4.25;3.80;;;15.20;90.10;;;;;;5006520;28;20382;-77
2023/05/12 13:38:02;;;;;;;4.20;3.80;;;15.00;90.70;;;;;;5000982;28;20073;-79
2023/05/12 13:40:28;;;;;;;5.63;4.07;;;15.00;91.10;;;;;;4994499;28;20030;-77
2023/05/12 13:42:54;;;;;;;5.50;4.97;;;15.00;91.10;;;;;;4995597;28;20031;-77
2023/05/12 13:45:20;;;;;;;4.60;4.20;;;14.90;91.20;;;;;;4988492;28;20033;-77
2023/05/12 13:47:45;;;;;;;3.70;3.38;;;14.80;91.30;;;;;;4997210;28;20049;-77
2023/05/12 13:50:11;;;;;;;3.40;3.10;;;14.80;91.70;;;;;;4993446;28;20033;-77
2023/05/12 13:52:37;;;;;;;5.53;4.07;;;14.70;92.00;;;;;;4999942;28;20034;-76
2023/05/12 13:55:02;;;;;;;3.70;3.38;;;14.60;91.80;;;;;;4997180;28;20034;-78
2023/05/12 13:57:28;;;;;;;3.70;3.40;;;14.50;92.40;;;;;;4997631;28;20483;-78
2023/05/12 13:59:56;;;;;;;4.07;3.67;;;14.40;92.70;;;;;;5001168;28;20022;-78
2023/05/12 14:02:22;;;;;;;4.38;3.70;;;14.30;92.90;;;;;;5015165;28;20028;-77
2023/05/12 14:04:48;;;;;;;3.63;3.10;;;14.20;93.20;;;;;;5013470;28;20389;-77
2023/05/12 14:07:14;;;;;;;3.90;3.50;;;14.10;93.60;;;;;;4997779;28;20027;-77
2023/05/12 14:09:40;;;;;;;4.82;3.80;;;14.10;93.50;;;;;;4998012;28;20332;-77
2023/05/12 14:12:06;;;;;;;4.47;2.80;;;13.90;93.80;;;;;;5007321;28;20037;-77
2023/05/12 14:14:31;;;;;;;3.72;3.38;;;13.80;94.10;;;;;;4995532;28;20037;-76
2023/05/12 14:16:57;;;;;;;5.63;4.60;;;13.70;94.50;;;;;;5011354;28;20030;-77
2023/05/12 14:19:23;;;;;;;3.47;3.15;;;13.70;94.70;;;;;;5003008;28;20082;-77
2023/05/12 14:21:48;;;;;;;3.88;2.60;;;13.70;95.10;;;;;;4987081;28;20467;-77
2023/05/12 14:24:14;;;;;;;4.65;3.60;;;13.70;95.50;;;;;;4993649;28;20580;-78
2023/05/12 14:26:40;;;;;;;4.22;3.65;;;13.70;95.60;;;;;;5005227;28;20486;-77
2023/05/12 14:29:06;;;;;;;3.03;2.78;;;13.70;95.50;;;;;;5002385;28;20038;-76
2023/05/12 14:31:31;;;;;;;3.63;3.05;;;13.60;95.90;;;;;;4996090;28;20022;-77
2023/05/12 14:33:57;;;;;;;3.78;3.38;;;13.70;96.00;;;;;;4997973;28;20048;-77
2023/05/12 14:36:23;;;;;;;3.47;3.17;;;13.80;96.10;;;;;;4998988;28;20088;-77
2023/05/12 14:38:48;;;;;;;3.00;2.80;;;13.80;95.50;;;;;;4999326;28;20026;-77
2023/05/12 14:41:14;;;;;;;5.32;3.75;;;13.80;95.70;;;;;;5005207;28;20030;-77